sensor_id;sensor_type;location;lat;lon;timestamp;pressure;altitude;pressure_sealevel;temperature;humidity
5905;BME280;2978;42.012;24.880;2023-02-13T00:02:23;100646.78;;;6.25;57.58
5905;BME280;2978;42.012;24.880;2023-02-13T00:04:49;100659.16;;;6.21;58.12
5905;BME280;2978;42.012;24.880;2023-02-13T00:07:14;100662.69;;;6.15;58.92
5905;BME280;2978;42.012;24.880;2023-02-13T00:09:39;100648.78;;;6.10;58.20
5905;BME280;2978;42.012;24.880;2023-02-13T00:12:06;100651.69;;;6.02;58.94
5905;BME280;2978;42.012;24.880;2023-02-13T00:14:36;100655.00;;;5.98;59.29
5905;BME280;2978;42.012;24.880;2023-02-13T00:17:02;100654.16;;;5.97;59.56
5905;BME280;2978;42.012;24.880;2023-02-13T00:19:28;100659.13;;;6.15;58.89
5905;BME280;2978;42.012;24.880;2023-02-13T00:21:53;100657.41;;;6.41;57.05
5905;BME280;2978;42.012;24.880;2023-02-13T00:24:18;100663.56;;;6.56;57.13
5905;BME280;2978;42.012;24.880;2023-02-13T00:26:44;100661.28;;;6.66;56.27
5905;BME280;2978;42.012;24.880;2023-02-13T00:29:09;100658.59;;;6.73;55.45
5905;BME280;2978;42.012;24.880;2023-02-13T00:31:35;100656.34;;;6.83;55.95
5905;BME280;2978;42.012;24.880;2023-02-13T00:34:00;100660.75;;;6.91;54.62
5905;BME280;2978;42.012;24.880;2023-02-13T00:36:26;100657.41;;;6.95;55.11
5905;BME280;2978;42.012;24.880;2023-02-13T00:38:52;100659.75;;;6.98;54.33
5905;BME280;2978;42.012;24.880;2023-02-13T00:41:18;100659.38;;;7.08;53.97
5905;BME280;2978;42.012;24.880;2023-02-13T00:43:44;100663.13;;;7.13;53.71
5905;BME280;2978;42.012;24.880;2023-02-13T00:46:10;100661.38;;;6.79;53.98
5905;BME280;2978;42.012;24.880;2023-02-13T00:48:36;100666.84;;;6.79;54.45
5905;BME280;2978;42.012;24.880;2023-02-13T00:51:02;100662.22;;;6.87;54.70
5905;BME280;2978;42.012;24.880;2023-02-13T00:53:28;100663.91;;;6.88;54.50
5905;BME280;2978;42.012;24.880;2023-02-13T00:55:53;100670.03;;;7.03;54.25
5905;BME280;2978;42.012;24.880;2023-02-13T00:58:20;100654.97;;;7.33;53.18
5905;BME280;2978;42.012;24.880;2023-02-13T01:00:46;100654.38;;;7.44;52.63
5905;BME280;2978;42.012;24.880;2023-02-13T01:03:13;100660.28;;;7.41;53.41
5905;BME280;2978;42.012;24.880;2023-02-13T01:05:38;100661.31;;;7.40;53.84
5905;BME280;2978;42.012;24.880;2023-02-13T01:08:04;100663.63;;;7.36;53.67
5905;BME280;2978;42.012;24.880;2023-02-13T01:10:30;100652.25;;;7.20;54.14
5905;BME280;2978;42.012;24.880;2023-02-13T01:12:55;100664.00;;;7.14;54.64
5905;BME280;2978;42.012;24.880;2023-02-13T01:15:21;100656.00;;;7.19;55.14
5905;BME280;2978;42.012;24.880;2023-02-13T01:17:46;100658.78;;;7.32;54.14
5905;BME280;2978;42.012;24.880;2023-02-13T01:20:12;100651.81;;;7.29;54.46
5905;BME280;2978;42.012;24.880;2023-02-13T01:22:39;100654.75;;;7.15;54.92
5905;BME280;2978;42.012;24.880;2023-02-13T01:25:06;100657.22;;;7.03;55.26
5905;BME280;2978;42.012;24.880;2023-02-13T01:27:32;100652.97;;;6.88;56.34
5905;BME280;2978;42.012;24.880;2023-02-13T01:29:57;100653.59;;;6.83;56.29
5905;BME280;2978;42.012;24.880;2023-02-13T01:32:23;100656.38;;;6.96;55.92
5905;BME280;2978;42.012;24.880;2023-02-13T01:34:48;100655.94;;;6.93;55.79
5905;BME280;2978;42.012;24.880;2023-02-13T01:37:14;100663.66;;;6.76;56.81
5905;BME280;2978;42.012;24.880;2023-02-13T01:39:39;100667.16;;;6.63;56.33
5905;BME280;2978;42.012;24.880;2023-02-13T01:42:14;100657.97;;;6.37;57.99
5905;BME280;2978;42.012;24.880;2023-02-13T01:44:49;100659.47;;;6.39;56.63
5905;BME280;2978;42.012;24.880;2023-02-13T01:47:38;100666.38;;;6.35;57.36
5905;BME280;2978;42.012;24.880;2023-02-13T01:50:17;100659.69;;;6.38;57.09
5905;BME280;2978;42.012;24.880;2023-02-13T01:52:54;100656.41;;;6.21;57.38
5905;BME280;2978;42.012;24.880;2023-02-13T01:55:20;100664.91;;;6.05;58.02
5905;BME280;2978;42.012;24.880;2023-02-13T01:57:51;100663.47;;;5.82;59.86
5905;BME280;2978;42.012;24.880;2023-02-13T02:00:18;100660.41;;;5.91;60.15
5905;BME280;2978;42.012;24.880;2023-02-13T02:02:48;100662.59;;;6.02;58.96
5905;BME280;2978;42.012;24.880;2023-02-13T02:05:15;100659.41;;;5.99;59.19
5905;BME280;2978;42.012;24.880;2023-02-13T02:07:42;100661.47;;;5.90;59.42
5905;BME280;2978;42.012;24.880;2023-02-13T02:10:10;100667.56;;;5.71;59.32
5905;BME280;2978;42.012;24.880;2023-02-13T02:12:43;100675.91;;;5.63;59.89
5905;BME280;2978;42.012;24.880;2023-02-13T02:15:09;100671.47;;;5.62;60.64
5905;BME280;2978;42.012;24.880;2023-02-13T02:17:35;100674.47;;;5.88;59.65
5905;BME280;2978;42.012;24.880;2023-02-13T02:31:37;100688.81;;;5.12;62.39
5905;BME280;2978;42.012;24.880;2023-02-13T02:34:12;100694.41;;;5.46;61.84
5905;BME280;2978;42.012;24.880;2023-02-13T02:42:09;100710.97;;;5.45;60.68
5905;BME280;2978;42.012;24.880;2023-02-13T02:45:00;100716.41;;;5.24;61.92
5905;BME280;2978;42.012;24.880;2023-02-13T02:47:53;100726.13;;;5.12;63.91
5905;BME280;2978;42.012;24.880;2023-02-13T02:50:51;100736.38;;;5.10;63.85
5905;BME280;2978;42.012;24.880;2023-02-13T02:53:38;100735.44;;;5.03;64.37
5905;BME280;2978;42.012;24.880;2023-02-13T02:59:03;100718.38;;;4.80;63.91
5905;BME280;2978;42.012;24.880;2023-02-13T03:01:50;100730.78;;;4.68;64.41
5905;BME280;2978;42.012;24.880;2023-02-13T03:04:42;100741.59;;;4.61;65.42
5905;BME280;2978;42.012;24.880;2023-02-13T03:07:26;100750.91;;;4.67;65.12
5905;BME280;2978;42.012;24.880;2023-02-13T03:09:56;100746.56;;;4.57;65.79
5905;BME280;2978;42.012;24.880;2023-02-13T03:12:46;100743.09;;;4.49;65.88
5905;BME280;2978;42.012;24.880;2023-02-13T03:15:34;100750.78;;;4.16;67.16
5905;BME280;2978;42.012;24.880;2023-02-13T03:18:20;100762.94;;;4.06;68.25
5905;BME280;2978;42.012;24.880;2023-02-13T03:21:15;100750.66;;;4.10;68.13
5905;BME280;2978;42.012;24.880;2023-02-13T03:24:10;100746.06;;;4.10;67.87
5905;BME280;2978;42.012;24.880;2023-02-13T03:27:04;100751.59;;;4.02;67.71
5905;BME280;2978;42.012;24.880;2023-02-13T03:30:00;100751.94;;;3.99;68.42
5905;BME280;2978;42.012;24.880;2023-02-13T03:38:22;100753.22;;;4.11;67.58
5905;BME280;2978;42.012;24.880;2023-02-13T03:41:15;100750.72;;;4.02;68.36
5905;BME280;2978;42.012;24.880;2023-02-13T03:44:05;100750.25;;;3.98;68.31
5905;BME280;2978;42.012;24.880;2023-02-13T03:46:37;100751.16;;;3.91;68.38
5905;BME280;2978;42.012;24.880;2023-02-13T03:49:06;100752.31;;;3.96;68.56
5905;BME280;2978;42.012;24.880;2023-02-13T03:52:05;100750.50;;;4.11;68.52
5905;BME280;2978;42.012;24.880;2023-02-13T03:55:21;100758.34;;;4.06;68.31
5905;BME280;2978;42.012;24.880;2023-02-13T03:58:10;100741.69;;;3.87;68.34
5905;BME280;2978;42.012;24.880;2023-02-13T04:00:58;100742.41;;;3.81;69.06
5905;BME280;2978;42.012;24.880;2023-02-13T04:03:28;100748.53;;;3.83;68.97
5905;BME280;2978;42.012;24.880;2023-02-13T04:06:02;100748.34;;;3.84;69.54
5905;BME280;2978;42.012;24.880;2023-02-13T04:08:29;100756.31;;;3.86;69.37
5905;BME280;2978;42.012;24.880;2023-02-13T04:11:05;100753.09;;;3.68;69.52
5905;BME280;2978;42.012;24.880;2023-02-13T04:13:34;100747.50;;;3.61;69.59
5905;BME280;2978;42.012;24.880;2023-02-13T04:16:09;100750.78;;;3.57;70.29
5905;BME280;2978;42.012;24.880;2023-02-13T04:18:36;100755.97;;;3.66;70.15
5905;BME280;2978;42.012;24.880;2023-02-13T04:21:04;100759.22;;;3.62;70.13
5905;BME280;2978;42.012;24.880;2023-02-13T04:23:30;100757.25;;;3.56;70.31
5905;BME280;2978;42.012;24.880;2023-02-13T04:25:57;100766.50;;;3.47;70.45
5905;BME280;2978;42.012;24.880;2023-02-13T04:28:24;100767.38;;;3.39;71.16
5905;BME280;2978;42.012;24.880;2023-02-13T04:30:50;100762.25;;;3.44;70.99
5905;BME280;2978;42.012;24.880;2023-02-13T04:33:15;100764.25;;;3.50;71.06
5905;BME280;2978;42.012;24.880;2023-02-13T04:35:41;100754.28;;;3.65;70.42
5905;BME280;2978;42.012;24.880;2023-02-13T04:38:06;100765.41;;;3.78;69.76
5905;BME280;2978;42.012;24.880;2023-02-13T04:40:32;100750.19;;;3.69;69.94
5905;BME280;2978;42.012;24.880;2023-02-13T04:42:57;100752.13;;;3.61;70.56
5905;BME280;2978;42.012;24.880;2023-02-13T04:45:22;100760.00;;;3.47;71.06
5905;BME280;2978;42.012;24.880;2023-02-13T04:47:50;100760.09;;;3.39;71.38
5905;BME280;2978;42.012;24.880;2023-02-13T04:50:16;100768.72;;;3.43;71.77
5905;BME280;2978;42.012;24.880;2023-02-13T04:52:41;100762.97;;;3.38;71.72
5905;BME280;2978;42.012;24.880;2023-02-13T04:55:07;100773.19;;;3.36;71.50
5905;BME280;2978;42.012;24.880;2023-02-13T04:57:32;100767.78;;;3.28;71.93
5905;BME280;2978;42.012;24.880;2023-02-13T04:59:58;100763.06;;;3.22;72.15
5905;BME280;2978;42.012;24.880;2023-02-13T05:02:23;100764.13;;;3.13;72.69
5905;BME280;2978;42.012;24.880;2023-02-13T05:04:49;100772.13;;;3.14;72.61
5905;BME280;2978;42.012;24.880;2023-02-13T05:07:14;100766.81;;;3.21;73.12
5905;BME280;2978;42.012;24.880;2023-02-13T05:09:40;100767.91;;;3.12;73.20
5905;BME280;2978;42.012;24.880;2023-02-13T05:12:05;100769.44;;;3.06;73.39
5905;BME280;2978;42.012;24.880;2023-02-13T05:14:31;100774.75;;;3.00;73.55
5905;BME280;2978;42.012;24.880;2023-02-13T05:16:56;100775.94;;;2.97;74.09
5905;BME280;2978;42.012;24.880;2023-02-13T05:19:22;100772.06;;;2.92;74.22
5905;BME280;2978;42.012;24.880;2023-02-13T05:21:47;100780.19;;;3.00;74.49
5905;BME280;2978;42.012;24.880;2023-02-13T05:24:31;100778.91;;;3.10;73.87
5905;BME280;2978;42.012;24.880;2023-02-13T05:26:56;100782.66;;;3.09;73.75
5905;BME280;2978;42.012;24.880;2023-02-13T05:29:21;100792.50;;;3.10;73.76
5905;BME280;2978;42.012;24.880;2023-02-13T05:31:52;100785.94;;;3.05;73.98
5905;BME280;2978;42.012;24.880;2023-02-13T05:34:22;100791.50;;;3.11;73.65
5905;BME280;2978;42.012;24.880;2023-02-13T05:36:48;100796.69;;;3.21;73.40
5905;BME280;2978;42.012;24.880;2023-02-13T05:39:14;100797.69;;;3.28;73.31
5905;BME280;2978;42.012;24.880;2023-02-13T05:41:40;100805.06;;;3.42;72.56
5905;BME280;2978;42.012;24.880;2023-02-13T05:44:05;100804.72;;;3.45;72.50
5905;BME280;2978;42.012;24.880;2023-02-13T05:46:31;100807.78;;;3.42;72.54
5905;BME280;2978;42.012;24.880;2023-02-13T05:48:57;100810.69;;;3.40;72.20
5905;BME280;2978;42.012;24.880;2023-02-13T05:51:23;100815.28;;;3.40;72.16
5905;BME280;2978;42.012;24.880;2023-02-13T05:53:48;100807.44;;;3.45;72.26
5905;BME280;2978;42.012;24.880;2023-02-13T05:56:14;100810.81;;;3.47;71.90
5905;BME280;2978;42.012;24.880;2023-02-13T05:58:39;100810.16;;;3.45;71.69
5905;BME280;2978;42.012;24.880;2023-02-13T06:01:05;100821.75;;;3.39;71.48
5905;BME280;2978;42.012;24.880;2023-02-13T06:03:31;100820.00;;;3.46;71.82
5905;BME280;2978;42.012;24.880;2023-02-13T06:05:58;100824.75;;;3.52;71.35
5905;BME280;2978;42.012;24.880;2023-02-13T06:08:24;100827.94;;;3.56;71.75
5905;BME280;2978;42.012;24.880;2023-02-13T06:10:50;100821.66;;;3.55;71.79
5905;BME280;2978;42.012;24.880;2023-02-13T06:13:16;100827.09;;;3.55;72.13
5905;BME280;2978;42.012;24.880;2023-02-13T06:15:42;100830.75;;;3.39;72.03
5905;BME280;2978;42.012;24.880;2023-02-13T06:18:07;100833.31;;;3.33;72.61
5905;BME280;2978;42.012;24.880;2023-02-13T06:20:34;100838.75;;;3.33;72.82
5905;BME280;2978;42.012;24.880;2023-02-13T06:22:59;100840.72;;;3.47;72.20
5905;BME280;2978;42.012;24.880;2023-02-13T06:25:25;100839.75;;;3.71;71.70
5905;BME280;2978;42.012;24.880;2023-02-13T06:27:50;100835.97;;;3.94;70.45
5905;BME280;2978;42.012;24.880;2023-02-13T06:30:16;100831.47;;;4.09;69.67
5905;BME280;2978;42.012;24.880;2023-02-13T06:32:42;100829.69;;;4.16;69.02
5905;BME280;2978;42.012;24.880;2023-02-13T06:35:08;100834.97;;;4.32;68.90
5905;BME280;2978;42.012;24.880;2023-02-13T06:37:34;100837.84;;;4.53;68.22
5905;BME280;2978;42.012;24.880;2023-02-13T06:39:59;100820.00;;;4.66;67.17
5905;BME280;2978;42.012;24.880;2023-02-13T06:42:25;100828.50;;;4.71;67.20
5905;BME280;2978;42.012;24.880;2023-02-13T06:44:50;100823.78;;;4.65;67.03
5905;BME280;2978;42.012;24.880;2023-02-13T06:47:16;100831.28;;;4.63;66.78
5905;BME280;2978;42.012;24.880;2023-02-13T06:49:41;100827.44;;;4.72;66.63
5905;BME280;2978;42.012;24.880;2023-02-13T06:52:07;100830.28;;;4.93;66.22
5905;BME280;2978;42.012;24.880;2023-02-13T06:54:32;100825.38;;;5.03;66.09
5905;BME280;2978;42.012;24.880;2023-02-13T06:56:58;100835.63;;;5.01;65.97
5905;BME280;2978;42.012;24.880;2023-02-13T06:59:23;100831.31;;;5.06;66.17
5905;BME280;2978;42.012;24.880;2023-02-13T07:01:48;100829.91;;;5.10;65.44
5905;BME280;2978;42.012;24.880;2023-02-13T07:04:14;100812.31;;;5.13;65.24
5905;BME280;2978;42.012;24.880;2023-02-13T07:06:39;100827.25;;;5.31;64.26
5905;BME280;2978;42.012;24.880;2023-02-13T07:09:05;100817.72;;;5.42;64.09
5905;BME280;2978;42.012;24.880;2023-02-13T07:11:30;100818.47;;;5.50;64.18
5905;BME280;2978;42.012;24.880;2023-02-13T07:13:56;100811.41;;;5.56;63.56
5905;BME280;2978;42.012;24.880;2023-02-13T07:16:21;100811.56;;;5.54;63.47
5905;BME280;2978;42.012;24.880;2023-02-13T07:18:47;100802.56;;;5.54;62.73
5905;BME280;2978;42.012;24.880;2023-02-13T07:21:12;100808.50;;;5.79;63.02
5905;BME280;2978;42.012;24.880;2023-02-13T07:23:38;100810.59;;;5.98;61.51
5905;BME280;2978;42.012;24.880;2023-02-13T07:26:04;100803.91;;;6.00;61.02
5905;BME280;2978;42.012;24.880;2023-02-13T07:28:29;100805.41;;;6.03;60.67
5905;BME280;2978;42.012;24.880;2023-02-13T07:30:55;100804.56;;;6.02;60.99
5905;BME280;2978;42.012;24.880;2023-02-13T07:33:21;100804.41;;;6.10;60.84
5905;BME280;2978;42.012;24.880;2023-02-13T07:35:50;100815.22;;;6.18;60.46
5905;BME280;2978;42.012;24.880;2023-02-13T07:38:17;100812.22;;;6.13;60.72
5905;BME280;2978;42.012;24.880;2023-02-13T07:40:42;100806.03;;;6.26;60.32
5905;BME280;2978;42.012;24.880;2023-02-13T07:43:08;100808.16;;;6.30;59.40
5905;BME280;2978;42.012;24.880;2023-02-13T07:45:33;100812.78;;;6.30;59.38
5905;BME280;2978;42.012;24.880;2023-02-13T07:47:59;100811.59;;;6.39;59.71
5905;BME280;2978;42.012;24.880;2023-02-13T07:50:24;100809.72;;;6.39;59.25
5905;BME280;2978;42.012;24.880;2023-02-13T07:52:57;100811.63;;;6.45;59.55
5905;BME280;2978;42.012;24.880;2023-02-13T07:55:23;100805.59;;;6.50;60.17
5905;BME280;2978;42.012;24.880;2023-02-13T07:57:49;100808.41;;;6.63;59.43
5905;BME280;2978;42.012;24.880;2023-02-13T08:00:15;100805.53;;;6.71;59.28
5905;BME280;2978;42.012;24.880;2023-02-13T08:02:41;100810.56;;;6.67;59.39
5905;BME280;2978;42.012;24.880;2023-02-13T08:05:07;100812.03;;;6.70;59.82
5905;BME280;2978;42.012;24.880;2023-02-13T08:07:33;100798.03;;;6.79;59.27
5905;BME280;2978;42.012;24.880;2023-02-13T08:09:59;100807.75;;;6.89;59.11
5905;BME280;2978;42.012;24.880;2023-02-13T08:12:43;100810.34;;;7.03;58.09
5905;BME280;2978;42.012;24.880;2023-02-13T08:15:10;100800.72;;;7.14;57.99
5905;BME280;2978;42.012;24.880;2023-02-13T08:17:36;100795.25;;;7.14;57.17
5905;BME280;2978;42.012;24.880;2023-02-13T08:20:02;100799.09;;;7.19;56.90
5905;BME280;2978;42.012;24.880;2023-02-13T08:22:27;100800.31;;;7.17;57.52
5905;BME280;2978;42.012;24.880;2023-02-13T08:24:53;100804.97;;;7.16;58.20
5905;BME280;2978;42.012;24.880;2023-02-13T08:27:18;100799.53;;;7.23;57.63
5905;BME280;2978;42.012;24.880;2023-02-13T08:29:44;100797.44;;;7.31;57.11
5905;BME280;2978;42.012;24.880;2023-02-13T08:32:09;100801.28;;;7.37;56.97
5905;BME280;2978;42.012;24.880;2023-02-13T08:34:35;100802.34;;;7.42;56.33
5905;BME280;2978;42.012;24.880;2023-02-13T08:37:01;100797.13;;;7.54;55.55
5905;BME280;2978;42.012;24.880;2023-02-13T08:39:27;100794.81;;;7.57;56.17
5905;BME280;2978;42.012;24.880;2023-02-13T08:41:52;100789.13;;;7.59;55.53
5905;BME280;2978;42.012;24.880;2023-02-13T08:44:18;100798.63;;;7.63;55.04
5905;BME280;2978;42.012;24.880;2023-02-13T08:46:43;100792.28;;;7.56;54.82
5905;BME280;2978;42.012;24.880;2023-02-13T08:49:08;100790.84;;;7.60;54.93
5905;BME280;2978;42.012;24.880;2023-02-13T08:51:34;100784.94;;;7.63;56.14
5905;BME280;2978;42.012;24.880;2023-02-13T08:53:59;100798.41;;;7.58;55.42
5905;BME280;2978;42.012;24.880;2023-02-13T08:56:25;100799.06;;;7.73;55.26
5905;BME280;2978;42.012;24.880;2023-02-13T08:58:50;100793.16;;;7.76;54.76
5905;BME280;2978;42.012;24.880;2023-02-13T09:01:16;100800.94;;;7.66;55.09
5905;BME280;2978;42.012;24.880;2023-02-13T09:03:41;100785.38;;;7.66;54.30
5905;BME280;2978;42.012;24.880;2023-02-13T09:06:10;100794.63;;;7.65;54.48
5905;BME280;2978;42.012;24.880;2023-02-13T09:08:35;100792.72;;;7.59;55.92
5905;BME280;2978;42.012;24.880;2023-02-13T09:11:02;100788.72;;;7.62;56.04
5905;BME280;2978;42.012;24.880;2023-02-13T09:13:30;100786.44;;;7.78;54.61
5905;BME280;2978;42.012;24.880;2023-02-13T09:16:00;100771.50;;;7.87;54.80
5905;BME280;2978;42.012;24.880;2023-02-13T09:18:26;100775.31;;;7.93;54.73
5905;BME280;2978;42.012;24.880;2023-02-13T09:21:10;100788.59;;;8.02;54.63
5905;BME280;2978;42.012;24.880;2023-02-13T09:23:38;100776.78;;;8.02;54.44
5905;BME280;2978;42.012;24.880;2023-02-13T09:26:08;100773.00;;;8.03;54.35
5905;BME280;2978;42.012;24.880;2023-02-13T09:28:35;100772.78;;;7.98;54.98
5905;BME280;2978;42.012;24.880;2023-02-13T09:31:08;100774.03;;;7.89;55.49
5905;BME280;2978;42.012;24.880;2023-02-13T09:33:34;100765.63;;;7.90;54.93
5905;BME280;2978;42.012;24.880;2023-02-13T09:36:08;100762.66;;;7.92;55.09
5905;BME280;2978;42.012;24.880;2023-02-13T09:38:34;100755.72;;;7.96;55.07
5905;BME280;2978;42.012;24.880;2023-02-13T09:41:06;100752.78;;;8.04;55.29
5905;BME280;2978;42.012;24.880;2023-02-13T09:43:42;100755.09;;;8.07;55.06
5905;BME280;2978;42.012;24.880;2023-02-13T09:46:31;100749.41;;;8.15;53.58
5905;BME280;2978;42.012;24.880;2023-02-13T09:49:00;100746.88;;;8.20;53.99
5905;BME280;2978;42.012;24.880;2023-02-13T09:51:27;100732.75;;;8.23;53.80
5905;BME280;2978;42.012;24.880;2023-02-13T09:59:11;100729.38;;;8.54;53.19
5905;BME280;2978;42.012;24.880;2023-02-13T10:01:43;100726.00;;;8.58;52.34
5905;BME280;2978;42.012;24.880;2023-02-13T10:04:24;100723.91;;;8.54;52.90
5905;BME280;2978;42.012;24.880;2023-02-13T10:10:01;100712.94;;;8.54;52.54
5905;BME280;2978;42.012;24.880;2023-02-13T10:15:05;100707.41;;;8.67;52.19
5905;BME280;2978;42.012;24.880;2023-02-13T10:17:37;100690.56;;;8.63;52.65
5905;BME280;2978;42.012;24.880;2023-02-13T10:22:55;100693.28;;;8.70;52.35
5905;BME280;2978;42.012;24.880;2023-02-13T10:25:26;100683.59;;;8.67;52.47
5905;BME280;2978;42.012;24.880;2023-02-13T10:27:55;100672.78;;;8.79;52.29
5905;BME280;2978;42.012;24.880;2023-02-13T10:30:52;100670.63;;;8.87;51.85
5905;BME280;2978;42.012;24.880;2023-02-13T10:33:29;100663.03;;;8.89;51.81
5905;BME280;2978;42.012;24.880;2023-02-13T10:38:40;100653.28;;;9.06;51.68
5905;BME280;2978;42.012;24.880;2023-02-13T10:44:11;100653.94;;;9.33;50.84
5905;BME280;2978;42.012;24.880;2023-02-13T10:49:36;100644.88;;;9.33;50.60
5905;BME280;2978;42.012;24.880;2023-02-13T10:55:37;100627.97;;;9.36;50.56
5905;BME280;2978;42.012;24.880;2023-02-13T11:04:11;100603.31;;;9.54;49.94
5905;BME280;2978;42.012;24.880;2023-02-13T11:06:41;100593.41;;;9.53;49.50
5905;BME280;2978;42.012;24.880;2023-02-13T11:09:07;100594.25;;;9.53;49.67
5905;BME280;2978;42.012;24.880;2023-02-13T11:14:23;100592.34;;;9.78;49.24
5905;BME280;2978;42.012;24.880;2023-02-13T11:17:00;100582.44;;;9.77;48.69
5905;BME280;2978;42.012;24.880;2023-02-13T11:22:07;100567.50;;;9.91;48.36
5905;BME280;2978;42.012;24.880;2023-02-13T11:24:33;100571.69;;;9.94;48.29
5905;BME280;2978;42.012;24.880;2023-02-13T11:27:04;100568.91;;;10.00;47.90
5905;BME280;2978;42.012;24.880;2023-02-13T11:29:35;100562.91;;;10.10;48.11
5905;BME280;2978;42.012;24.880;2023-02-13T11:32:16;100554.88;;;10.08;47.17
5905;BME280;2978;42.012;24.880;2023-02-13T11:34:43;100548.59;;;10.01;47.46
5905;BME280;2978;42.012;24.880;2023-02-13T11:39:39;100543.91;;;10.08;46.51
5905;BME280;2978;42.012;24.880;2023-02-13T11:42:18;100536.19;;;10.17;46.42
5905;BME280;2978;42.012;24.880;2023-02-13T11:44:49;100520.63;;;10.11;46.47
5905;BME280;2978;42.012;24.880;2023-02-13T11:47:15;100509.09;;;10.20;46.13
5905;BME280;2978;42.012;24.880;2023-02-13T11:49:53;100518.22;;;10.33;45.86
5905;BME280;2978;42.012;24.880;2023-02-13T11:52:25;100512.66;;;10.39;45.88
5905;BME280;2978;42.012;24.880;2023-02-13T11:54:57;100510.81;;;10.51;45.41
5905;BME280;2978;42.012;24.880;2023-02-13T11:57:34;100514.47;;;10.63;45.28
5905;BME280;2978;42.012;24.880;2023-02-13T12:00:39;100502.50;;;10.69;45.11
5905;BME280;2978;42.012;24.880;2023-02-13T12:06:12;100504.09;;;10.77;44.00
5905;BME280;2978;42.012;24.880;2023-02-13T12:08:41;100503.72;;;10.73;43.11
5905;BME280;2978;42.012;24.880;2023-02-13T12:11:20;100498.38;;;10.78;42.21
5905;BME280;2978;42.012;24.880;2023-02-13T12:13:46;100494.53;;;10.79;42.44
5905;BME280;2978;42.012;24.880;2023-02-13T12:18:55;100483.56;;;10.91;41.89
5905;BME280;2978;42.012;24.880;2023-02-13T12:24:02;100482.75;;;11.02;40.12
5905;BME280;2978;42.012;24.880;2023-02-13T12:26:47;100461.56;;;10.91;39.69
5905;BME280;2978;42.012;24.880;2023-02-13T12:35:04;100464.81;;;10.99;40.24
5905;BME280;2978;42.012;24.880;2023-02-13T12:40:44;100470.81;;;10.96;39.40
5905;BME280;2978;42.012;24.880;2023-02-13T12:49:16;100458.34;;;10.94;38.23
5905;BME280;2978;42.012;24.880;2023-02-13T12:52:00;100463.59;;;10.95;38.72
5905;BME280;2978;42.012;24.880;2023-02-13T12:54:44;100453.69;;;10.94;38.31
5905;BME280;2978;42.012;24.880;2023-02-13T12:57:31;100440.47;;;10.85;37.97
5905;BME280;2978;42.012;24.880;2023-02-13T13:00:14;100452.34;;;10.85;38.43
5905;BME280;2978;42.012;24.880;2023-02-13T13:05:29;100445.19;;;10.96;38.55
5905;BME280;2978;42.012;24.880;2023-02-13T13:08:15;100436.31;;;11.05;38.05
5905;BME280;2978;42.012;24.880;2023-02-13T13:16:38;100442.94;;;11.16;36.86
5905;BME280;2978;42.012;24.880;2023-02-13T13:22:06;100435.41;;;11.11;37.16
5905;BME280;2978;42.012;24.880;2023-02-13T13:24:41;100428.97;;;11.17;37.24
5905;BME280;2978;42.012;24.880;2023-02-13T13:27:22;100430.16;;;11.33;37.14
5905;BME280;2978;42.012;24.880;2023-02-13T13:30:17;100422.00;;;11.38;37.05
5905;BME280;2978;42.012;24.880;2023-02-13T13:32:44;100415.91;;;11.36;37.01
5905;BME280;2978;42.012;24.880;2023-02-13T13:35:15;100421.41;;;11.48;37.14
5905;BME280;2978;42.012;24.880;2023-02-13T13:37:50;100404.66;;;11.38;36.58
5905;BME280;2978;42.012;24.880;2023-02-13T13:40:38;100411.47;;;11.35;36.37
5905;BME280;2978;42.012;24.880;2023-02-13T13:45:57;100407.97;;;11.28;36.24
5905;BME280;2978;42.012;24.880;2023-02-13T13:51:05;100413.03;;;11.31;36.13
5905;BME280;2978;42.012;24.880;2023-02-13T13:53:31;100401.41;;;11.29;36.46
5905;BME280;2978;42.012;24.880;2023-02-13T13:56:04;100408.13;;;11.33;36.62
5905;BME280;2978;42.012;24.880;2023-02-13T14:03:53;100410.13;;;11.14;36.50
5905;BME280;2978;42.012;24.880;2023-02-13T14:06:27;100407.75;;;11.06;36.60
5905;BME280;2978;42.012;24.880;2023-02-13T14:08:59;100404.75;;;10.96;36.26
5905;BME280;2978;42.012;24.880;2023-02-13T14:11:38;100402.72;;;11.03;35.95
5905;BME280;2978;42.012;24.880;2023-02-13T14:16:52;100392.78;;;11.02;35.90
5905;BME280;2978;42.012;24.880;2023-02-13T14:19:33;100399.25;;;11.08;36.37
5905;BME280;2978;42.012;24.880;2023-02-13T14:22:25;100389.22;;;11.13;36.20
5905;BME280;2978;42.012;24.880;2023-02-13T14:25:00;100389.22;;;11.13;35.87
5905;BME280;2978;42.012;24.880;2023-02-13T14:27:38;100390.06;;;11.14;35.90
5905;BME280;2978;42.012;24.880;2023-02-13T14:30:26;100391.34;;;11.11;35.79
5905;BME280;2978;42.012;24.880;2023-02-13T14:32:53;100397.34;;;11.08;36.37
5905;BME280;2978;42.012;24.880;2023-02-13T14:35:26;100387.06;;;11.15;36.32
5905;BME280;2978;42.012;24.880;2023-02-13T14:38:02;100391.72;;;11.03;36.10
5905;BME280;2978;42.012;24.880;2023-02-13T14:40:52;100401.03;;;11.02;36.04
5905;BME280;2978;42.012;24.880;2023-02-13T14:51:55;100363.81;;;10.88;36.29
5905;BME280;2978;42.012;24.880;2023-02-13T14:54:37;100372.56;;;10.97;38.08
5905;BME280;2978;42.012;24.880;2023-02-13T14:57:28;100382.00;;;10.89;38.42
5905;BME280;2978;42.012;24.880;2023-02-13T15:00:06;100373.84;;;10.83;38.18
5905;BME280;2978;42.012;24.880;2023-02-13T15:02:42;100378.59;;;10.64;38.97
5905;BME280;2978;42.012;24.880;2023-02-13T15:05:16;100366.38;;;10.49;39.82
5905;BME280;2978;42.012;24.880;2023-02-13T15:10:48;100355.53;;;10.24;40.12
5905;BME280;2978;42.012;24.880;2023-02-13T15:13:25;100369.16;;;10.19;40.76
5905;BME280;2978;42.012;24.880;2023-02-13T15:16:04;100367.16;;;10.08;40.80
5905;BME280;2978;42.012;24.880;2023-02-13T15:18:38;100359.41;;;9.87;41.90
5905;BME280;2978;42.012;24.880;2023-02-13T15:21:05;100358.66;;;9.80;41.48
5905;BME280;2978;42.012;24.880;2023-02-13T15:23:35;100365.84;;;9.81;41.73
5905;BME280;2978;42.012;24.880;2023-02-13T15:26:05;100361.81;;;9.65;41.92
5905;BME280;2978;42.012;24.880;2023-02-13T15:28:32;100370.44;;;9.51;42.43
5905;BME280;2978;42.012;24.880;2023-02-13T15:33:25;100370.06;;;9.29;43.03
5905;BME280;2978;42.012;24.880;2023-02-13T15:36:00;100358.06;;;9.24;43.21
5905;BME280;2978;42.012;24.880;2023-02-13T15:38:35;100359.13;;;9.04;43.58